Time;durP1;ratioP1;P1;durP2;ratioP2;P2;SDS_P1;SDS_P2;PMS_P1;PMS_P2;Temp;Humidity;BMP_temperature;BMP_pressure;BME280_temperature;BME280_humidity;BME280_pressure;Samples;Min_cycle;Max_cycle;Signal;HPM_P1;HPM_P2
2022/11/25 00:00:06;;;;;;;12.65;11.68;;;;;;;;;;4818424;29;20046;-79
2022/11/25 00:02:42;;;;;;;10.90;10.00;;;;;;;;;;4806363;29;20557;-79
2022/11/25 00:05:10;;;;;;;12.52;11.48;;;;;;;;;;4812139;29;20437;-78
2022/11/25 00:07:37;;;;;;;18.17;13.48;;;;;;;;;;4804192;29;20049;-78
2022/11/25 00:10:06;;;;;;;19.55;13.23;;;;;;;;;;4814492;29;20095;-78
2022/11/25 00:12:33;;;;;;;17.42;14.98;;;;;;;;;;4811627;29;20128;-79
2022/11/25 00:15:00;;;;;;;23.60;14.13;;;;;;;;;;4794905;29;20506;-78
2022/11/25 00:17:28;;;;;;;17.17;15.60;;;;;;;;;;4807945;29;20042;-78
2022/11/25 00:19:55;;;;;;;15.82;13.90;;;;;;;;;;4830433;29;20074;-78
2022/11/25 00:22:22;;;;;;;24.25;14.68;;;;;;;;;;4821837;29;20078;-78
2022/11/25 00:24:49;;;;;;;35.45;15.32;;;;;;;;;;4822857;29;20050;-78
2022/11/25 00:27:17;;;;;;;16.15;13.95;;;;;;;;;;4796888;29;20042;-78
2022/11/25 00:29:44;;;;;;;18.63;13.98;;;;;;;;;;4818603;29;20054;-78
2022/11/25 00:32:11;;;;;;;15.73;13.60;;;;;;;;;;4827653;29;20406;-79
2022/11/25 00:34:39;;;;;;;15.77;14.38;;;;;;;;;;4831478;29;20046;-79
2022/11/25 00:37:07;;;;;;;12.50;11.35;;;;;;;;;;4810264;29;20074;-79
2022/11/25 00:39:34;;;;;;;27.92;13.43;;;;;;;;;;4818577;29;20054;-79
2022/11/25 00:44:48;;;;;;;9.40;8.57;;;;;;;;;;4816247;29;20111;-80
2022/11/25 00:47:17;;;;;;;12.70;11.45;;;;;;;;;;4811538;29;20145;-78
2022/11/25 00:49:46;;;;;;;14.43;11.98;;;;;;;;;;4812904;29;20047;-80
2022/11/25 00:52:15;;;;;;;28.17;12.85;;;;;;;;;;4822995;29;20510;-79
2022/11/25 00:54:43;;;;;;;19.55;11.40;;;;;;;;;;4797651;29;20479;-79
2022/11/25 00:57:11;;;;;;;16.05;8.23;;;;;;;;;;4801260;29;20055;-79
2022/11/25 00:59:39;;;;;;;8.10;7.30;;;;;;;;;;4780167;29;20077;-79
2022/11/25 01:02:07;;;;;;;14.10;11.50;;;;;;;;;;4801894;29;20054;-79
2022/11/25 01:04:37;;;;;;;12.25;10.52;;;;;;;;;;4808369;29;20050;-79
2022/11/25 01:07:05;;;;;;;11.20;10.13;;;;;;;;;;4788665;29;20073;-79
2022/11/25 01:09:34;;;;;;;13.15;11.38;;;;;;;;;;4811214;29;20039;-79
2022/11/25 01:12:03;;;;;;;14.57;13.18;;;;;;;;;;4801777;29;20058;-79
2022/11/25 01:14:31;;;;;;;12.00;11.07;;;;;;;;;;4828378;29;20042;-79
2022/11/25 01:16:58;;;;;;;12.25;11.13;;;;;;;;;;4797560;29;20054;-79
2022/11/25 01:19:25;;;;;;;10.05;9.32;;;;;;;;;;4813682;29;20122;-80
2022/11/25 01:21:53;;;;;;;18.58;10.30;;;;;;;;;;4793412;29;20597;-79
2022/11/25 01:24:20;;;;;;;10.80;9.75;;;;;;;;;;4805356;29;20055;-79
2022/11/25 01:26:54;;;;;;;9.07;8.35;;;;;;;;;;4814031;29;20043;-79
2022/11/25 01:29:21;;;;;;;11.68;10.48;;;;;;;;;;4796423;29;20058;-78
2022/11/25 01:31:49;;;;;;;11.93;8.90;;;;;;;;;;4778739;29;20453;-78
2022/11/25 01:34:21;;;;;;;10.38;9.63;;;;;;;;;;4806937;29;20117;-79
2022/11/25 01:36:49;;;;;;;11.85;10.80;;;;;;;;;;4813392;29;20049;-79
2022/11/25 01:39:17;;;;;;;14.65;9.80;;;;;;;;;;4820644;29;20102;-79
2022/11/25 01:41:45;;;;;;;13.32;10.65;;;;;;;;;;4808186;29;20132;-79
2022/11/25 01:44:19;;;;;;;11.98;10.77;;;;;;;;;;4818252;29;20079;-79
2022/11/25 01:47:06;;;;;;;10.68;9.85;;;;;;;;;;4820548;29;20042;-79
2022/11/25 01:49:52;;;;;;;10.77;9.65;;;;;;;;;;4803247;29;20042;-79
2022/11/25 01:52:23;;;;;;;11.32;9.40;;;;;;;;;;4826904;29;20115;-79
2022/11/25 01:55:02;;;;;;;13.43;8.63;;;;;;;;;;4815658;29;20058;-78
2022/11/25 01:57:43;;;;;;;10.98;9.35;;;;;;;;;;4788539;29;20051;-79
2022/11/25 02:00:10;;;;;;;7.88;7.13;;;;;;;;;;4808879;29;20593;-78
2022/11/25 02:02:44;;;;;;;27.65;12.32;;;;;;;;;;4791723;29;20058;-78
2022/11/25 02:05:13;;;;;;;10.98;9.68;;;;;;;;;;4806246;29;20050;-78
2022/11/25 02:07:43;;;;;;;15.85;10.10;;;;;;;;;;4805782;29;20062;-78
2022/11/25 02:10:13;;;;;;;13.82;8.82;;;;;;;;;;4812659;29;20046;-79
2022/11/25 02:12:43;;;;;;;16.90;10.90;;;;;;;;;;4812132;29;20042;-78
2022/11/25 02:15:10;;;;;;;10.57;9.73;;;;;;;;;;4802552;29;20089;-78
2022/11/25 02:17:38;;;;;;;10.68;9.63;;;;;;;;;;4810098;29;20047;-78
2022/11/25 02:20:13;;;;;;;9.90;9.00;;;;;;;;;;4825473;29;20064;-78
2022/11/25 02:22:41;;;;;;;11.65;10.63;;;;;;;;;;4812047;29;20051;-79
2022/11/25 02:25:20;;;;;;;8.18;7.55;;;;;;;;;;4808392;29;20112;-79
2022/11/25 02:27:49;;;;;;;9.60;8.70;;;;;;;;;;4788880;29;20057;-80
2022/11/25 02:30:16;;;;;;;10.88;10.02;;;;;;;;;;4807961;29;20035;-79
2022/11/25 02:32:45;;;;;;;10.65;8.82;;;;;;;;;;4817977;29;20279;-78
2022/11/25 02:35:32;;;;;;;15.95;12.52;;;;;;;;;;4801102;29;20051;-78
2022/11/25 02:38:02;;;;;;;9.50;7.65;;;;;;;;;;4802738;29;20054;-79
2022/11/25 02:40:30;;;;;;;13.32;11.48;;;;;;;;;;4813563;29;20394;-79
2022/11/25 02:42:58;;;;;;;13.25;10.88;;;;;;;;;;4820252;29;20099;-79
2022/11/25 02:45:31;;;;;;;12.90;10.60;;;;;;;;;;4800566;29;20563;-79
2022/11/25 02:47:59;;;;;;;12.82;10.68;;;;;;;;;;4829518;29;20125;-79
2022/11/25 02:50:27;;;;;;;10.23;8.38;;;;;;;;;;4797868;29;20053;-79
2022/11/25 02:52:54;;;;;;;16.45;12.55;;;;;;;;;;4807076;29;20051;-79
2022/11/25 02:55:21;;;;;;;11.40;10.50;;;;;;;;;;4805928;29;20121;-79
2022/11/25 02:57:49;;;;;;;13.68;11.02;;;;;;;;;;4809879;29;20053;-79
2022/11/25 03:00:17;;;;;;;18.15;11.43;;;;;;;;;;4812937;29;20137;-79
2022/11/25 03:02:44;;;;;;;14.93;12.55;;;;;;;;;;4818561;29;20058;-79
2022/11/25 03:05:11;;;;;;;9.27;8.60;;;;;;;;;;4819044;29;20103;-78
2022/11/25 03:07:39;;;;;;;14.68;12.02;;;;;;;;;;4807589;29;20387;-80
2022/11/25 03:10:06;;;;;;;11.88;10.73;;;;;;;;;;4806120;29;20433;-79
2022/11/25 03:12:34;;;;;;;10.32;8.93;;;;;;;;;;4826949;29;20045;-78
2022/11/25 03:15:01;;;;;;;13.10;11.02;;;;;;;;;;4822344;29;20062;-79
2022/11/25 03:17:29;;;;;;;16.42;10.48;;;;;;;;;;4804344;29;20452;-78
2022/11/25 03:19:56;;;;;;;10.70;9.48;;;;;;;;;;4797240;29;20070;-78
2022/11/25 03:22:24;;;;;;;12.30;9.55;;;;;;;;;;4809120;29;20127;-78
2022/11/25 03:24:52;;;;;;;11.45;10.30;;;;;;;;;;4803663;29;20088;-79
2022/11/25 03:27:19;;;;;;;17.77;10.70;;;;;;;;;;4814628;29;20042;-78
2022/11/25 03:29:47;;;;;;;12.10;10.98;;;;;;;;;;4800539;29;20050;-79
2022/11/25 03:32:15;;;;;;;12.10;10.52;;;;;;;;;;4828703;29;20049;-80
2022/11/25 03:34:43;;;;;;;11.50;10.45;;;;;;;;;;4815108;29;20053;-80
2022/11/25 03:37:10;;;;;;;18.73;10.82;;;;;;;;;;4788519;29;20041;-80
2022/11/25 03:39:38;;;;;;;11.05;9.82;;;;;;;;;;4793190;29;20082;-79
2022/11/25 03:42:06;;;;;;;16.27;13.60;;;;;;;;;;4809109;29;20169;-80
2022/11/25 03:44:33;;;;;;;10.20;9.48;;;;;;;;;;4803860;29;20524;-79
2022/11/25 03:47:01;;;;;;;9.90;9.13;;;;;;;;;;4798741;29;20070;-80
2022/11/25 03:49:29;;;;;;;10.52;9.52;;;;;;;;;;4813953;29;20062;-80
2022/11/25 03:51:56;;;;;;;11.60;10.40;;;;;;;;;;4804570;29;20137;-79
2022/11/25 03:54:23;;;;;;;9.77;9.07;;;;;;;;;;4809000;29;20555;-79
2022/11/25 03:57:29;;;;;;;8.70;7.80;;;;;;;;;;4800426;29;20537;-79
2022/11/25 03:59:57;;;;;;;9.95;8.98;;;;;;;;;;4808538;29;20287;-78
2022/11/25 04:02:24;;;;;;;10.27;9.13;;;;;;;;;;4807386;29;20054;-78
2022/11/25 04:04:52;;;;;;;10.15;7.47;;;;;;;;;;4807339;29;20054;-79
2022/11/25 04:07:19;;;;;;;9.45;8.50;;;;;;;;;;4790767;29;20099;-79
2022/11/25 04:09:47;;;;;;;10.10;8.35;;;;;;;;;;4805352;29;20071;-80
2022/11/25 04:15:06;;;;;;;13.48;7.47;;;;;;;;;;4802783;29;20533;-78
2022/11/25 04:17:34;;;;;;;15.23;8.18;;;;;;;;;;4800570;29;20081;-79
2022/11/25 04:20:01;;;;;;;19.02;12.35;;;;;;;;;;4799037;29;20042;-79
2022/11/25 04:22:29;;;;;;;21.15;11.15;;;;;;;;;;4794573;29;20057;-78
2022/11/25 04:24:57;;;;;;;20.73;10.55;;;;;;;;;;4802848;29;20056;-79
2022/11/25 04:27:25;;;;;;;27.65;9.27;;;;;;;;;;4804975;29;20534;-79
2022/11/25 04:29:53;;;;;;;13.85;7.95;;;;;;;;;;4794746;29;20070;-78
2022/11/25 04:32:21;;;;;;;11.43;8.18;;;;;;;;;;4818172;29;20409;-79
2022/11/25 04:34:49;;;;;;;14.35;8.65;;;;;;;;;;4790056;29;20046;-78
2022/11/25 04:37:17;;;;;;;14.77;10.00;;;;;;;;;;4821669;29;20068;-79
2022/11/25 04:39:45;;;;;;;9.32;8.30;;;;;;;;;;4806209;29;20078;-79
2022/11/25 04:42:33;;;;;;;11.07;7.90;;;;;;;;;;4816328;29;20070;-79
2022/11/25 04:45:06;;;;;;;12.30;7.90;;;;;;;;;;4800650;29;20062;-80
2022/11/25 04:47:51;;;;;;;17.23;8.68;;;;;;;;;;4801148;29;20121;-79
2022/11/25 04:50:19;;;;;;;10.02;7.20;;;;;;;;;;4806583;29;20043;-79
2022/11/25 04:53:00;;;;;;;7.63;7.03;;;;;;;;;;4794954;29;20046;-79
2022/11/25 04:55:28;;;;;;;11.20;7.32;;;;;;;;;;4791746;29;20503;-79
2022/11/25 04:57:56;;;;;;;9.10;8.30;;;;;;;;;;4791781;29;20524;-83
2022/11/25 05:00:23;;;;;;;9.77;7.13;;;;;;;;;;4790745;29;20150;-79
2022/11/25 05:02:52;;;;;;;11.68;6.70;;;;;;;;;;4769408;29;20062;-79
2022/11/25 05:05:21;;;;;;;7.28;6.75;;;;;;;;;;4799401;29;20046;-79
2022/11/25 05:07:48;;;;;;;8.57;7.82;;;;;;;;;;4801212;29;20049;-79
2022/11/25 05:10:18;;;;;;;14.35;7.95;;;;;;;;;;4798136;29;20093;-79
2022/11/25 05:12:47;;;;;;;8.30;7.57;;;;;;;;;;4809832;29;20050;-78
2022/11/25 05:15:19;;;;;;;10.77;8.07;;;;;;;;;;4803042;29;20441;-78
2022/11/25 05:17:48;;;;;;;11.85;8.45;;;;;;;;;;4791551;29;20579;-79
2022/11/25 05:20:21;;;;;;;15.07;9.32;;;;;;;;;;4798554;29;20215;-80
2022/11/25 05:22:48;;;;;;;8.77;7.88;;;;;;;;;;4795429;29;20448;-79
2022/11/25 05:25:19;;;;;;;17.70;9.00;;;;;;;;;;4807185;29;20058;-79
2022/11/25 05:28:07;;;;;;;12.85;10.75;;;;;;;;;;4812188;29;20525;-79
2022/11/25 05:30:35;;;;;;;13.52;12.10;;;;;;;;;;4781021;29;20513;-78
2022/11/25 05:33:04;;;;;;;10.35;8.85;;;;;;;;;;4779569;29;20481;-79
2022/11/25 05:35:31;;;;;;;10.77;9.02;;;;;;;;;;4784175;29;20058;-79
2022/11/25 05:37:59;;;;;;;13.00;8.85;;;;;;;;;;4800899;29;20050;-79
2022/11/25 05:40:30;;;;;;;15.52;9.55;;;;;;;;;;4796939;29;20082;-78
2022/11/25 05:43:06;;;;;;;11.35;9.55;;;;;;;;;;4796620;29;20505;-80
2022/11/25 05:45:40;;;;;;;12.00;9.57;;;;;;;;;;4801012;29;20070;-79
2022/11/25 05:48:09;;;;;;;18.92;9.48;;;;;;;;;;4801481;29;20444;-79
2022/11/25 05:50:37;;;;;;;10.25;8.98;;;;;;;;;;4804804;29;20058;-79
2022/11/25 05:53:16;;;;;;;10.77;8.75;;;;;;;;;;4799449;29;20047;-79
2022/11/25 05:55:52;;;;;;;8.57;7.82;;;;;;;;;;4802413;29;20046;-79
2022/11/25 05:58:28;;;;;;;9.63;8.63;;;;;;;;;;4795792;29;20054;-79
2022/11/25 06:00:58;;;;;;;9.63;8.82;;;;;;;;;;4785437;29;20058;-78
2022/11/25 06:03:29;;;;;;;14.75;13.35;;;;;;;;;;4799565;29;20049;-78
2022/11/25 06:05:58;;;;;;;9.05;8.25;;;;;;;;;;4788653;29;21014;-78
2022/11/25 06:08:26;;;;;;;9.13;8.32;;;;;;;;;;4797268;29;20398;-79
2022/11/25 06:10:54;;;;;;;10.25;9.25;;;;;;;;;;4816637;29;20047;-78
2022/11/25 06:13:21;;;;;;;10.43;8.65;;;;;;;;;;4800825;29;20358;-78
2022/11/25 06:15:52;;;;;;;11.18;9.70;;;;;;;;;;4803089;29;20471;-86
2022/11/25 06:18:20;;;;;;;12.32;11.13;;;;;;;;;;4785677;29;20390;-79
2022/11/25 06:20:55;;;;;;;11.57;10.48;;;;;;;;;;4786055;29;20073;-79
2022/11/25 06:23:23;;;;;;;12.65;11.32;;;;;;;;;;4789909;29;20594;-79
2022/11/25 06:25:51;;;;;;;8.75;8.02;;;;;;;;;;4769256;29;20085;-78
2022/11/25 06:28:18;;;;;;;11.93;9.77;;;;;;;;;;4795636;29;20051;-79
2022/11/25 06:30:48;;;;;;;16.50;10.57;;;;;;;;;;4804541;29;20089;-79
2022/11/25 06:33:23;;;;;;;13.77;9.95;;;;;;;;;;4789225;29;20054;-80
2022/11/25 06:35:50;;;;;;;18.63;11.15;;;;;;;;;;4779507;29;20596;-79
2022/11/25 06:38:18;;;;;;;16.45;12.90;;;;;;;;;;4794856;29;20054;-79
2022/11/25 06:40:45;;;;;;;10.10;9.15;;;;;;;;;;4822442;29;20054;-79
2022/11/25 06:43:13;;;;;;;10.43;8.25;;;;;;;;;;4823615;29;20536;-78
2022/11/25 06:45:40;;;;;;;9.43;8.63;;;;;;;;;;4811547;29;20152;-79
2022/11/25 06:48:07;;;;;;;11.25;10.15;;;;;;;;;;4810189;29;20070;-79
2022/11/25 06:50:34;;;;;;;10.13;9.13;;;;;;;;;;4799586;29;20046;-79
2022/11/25 06:53:02;;;;;;;8.98;8.20;;;;;;;;;;4803544;29;20134;-79
2022/11/25 06:55:29;;;;;;;11.20;10.10;;;;;;;;;;4815262;29;20062;-78
2022/11/25 06:57:56;;;;;;;11.82;10.50;;;;;;;;;;4818548;29;20052;-79
2022/11/25 07:00:43;;;;;;;15.50;10.77;;;;;;;;;;4823484;29;20048;-79
2022/11/25 07:03:11;;;;;;;13.20;11.63;;;;;;;;;;4796742;29;20474;-78
2022/11/25 07:05:38;;;;;;;15.77;11.95;;;;;;;;;;4811809;29;20417;-78
2022/11/25 07:08:05;;;;;;;15.43;13.10;;;;;;;;;;4826707;29;20042;-79
2022/11/25 07:10:33;;;;;;;13.48;9.90;;;;;;;;;;4801813;29;20046;-79
2022/11/25 07:13:01;;;;;;;11.25;10.23;;;;;;;;;;4823364;29;20482;-79
2022/11/25 07:15:28;;;;;;;13.77;11.57;;;;;;;;;;4809138;29;20141;-78
2022/11/25 07:17:55;;;;;;;11.82;10.60;;;;;;;;;;4828575;29;20227;-79
2022/11/25 07:20:24;;;;;;;13.45;12.07;;;;;;;;;;4810518;29;20056;-79
2022/11/25 07:22:53;;;;;;;12.82;10.43;;;;;;;;;;4797189;29;20531;-79
2022/11/25 07:25:20;;;;;;;11.07;9.65;;;;;;;;;;4806813;29;20076;-78
2022/11/25 07:27:54;;;;;;;12.20;10.98;;;;;;;;;;4825430;29;20126;-78
2022/11/25 07:30:24;;;;;;;12.60;11.32;;;;;;;;;;4770049;29;20464;-78
2022/11/25 07:33:11;;;;;;;12.48;11.18;;;;;;;;;;4814461;29;20043;-79
2022/11/25 07:35:38;;;;;;;17.27;15.85;;;;;;;;;;4823831;29;20180;-78
2022/11/25 07:38:06;;;;;;;14.27;12.38;;;;;;;;;;4822151;29;20049;-79
2022/11/25 07:40:34;;;;;;;14.57;12.98;;;;;;;;;;4783690;29;20054;-78
2022/11/25 07:43:01;;;;;;;16.08;14.38;;;;;;;;;;4806687;29;20058;-78
2022/11/25 07:45:28;;;;;;;15.10;12.93;;;;;;;;;;4807654;29;20090;-78
2022/11/25 07:48:06;;;;;;;14.48;12.30;;;;;;;;;;4778811;29;20048;-79
2022/11/25 07:50:33;;;;;;;12.63;9.82;;;;;;;;;;4812852;29;20063;-79
2022/11/25 07:53:01;;;;;;;14.68;13.25;;;;;;;;;;4820555;29;20041;-78
2022/11/25 07:55:28;;;;;;;16.88;13.27;;;;;;;;;;4818437;29;20053;-79
2022/11/25 07:57:55;;;;;;;17.38;15.70;;;;;;;;;;4818284;29;20045;-78
2022/11/25 08:00:23;;;;;;;15.30;13.85;;;;;;;;;;4820289;29;20047;-79
2022/11/25 08:02:51;;;;;;;14.90;13.52;;;;;;;;;;4810912;29;20517;-78
2022/11/25 08:05:19;;;;;;;14.57;13.10;;;;;;;;;;4796000;29;20049;-79
2022/11/25 08:07:46;;;;;;;18.92;16.80;;;;;;;;;;4812051;29;20043;-78
2022/11/25 08:10:13;;;;;;;14.15;12.70;;;;;;;;;;4810620;29;20043;-79
2022/11/25 08:12:41;;;;;;;15.75;12.90;;;;;;;;;;4800575;29;20043;-77
2022/11/25 08:15:08;;;;;;;14.65;13.18;;;;;;;;;;4794569;29;20107;-78
2022/11/25 08:17:36;;;;;;;13.68;12.32;;;;;;;;;;4821145;29;20045;-78
2022/11/25 08:20:03;;;;;;;18.80;16.90;;;;;;;;;;4819091;29;20134;-79
2022/11/25 08:22:37;;;;;;;15.82;14.23;;;;;;;;;;4815159;29;20161;-78
2022/11/25 08:25:04;;;;;;;25.13;19.60;;;;;;;;;;4941166;24;20409;-85
2022/11/25 08:27:32;;;;;;;17.73;16.23;;;;;;;;;;4800722;29;20046;-85
2022/11/25 08:30:02;;;;;;;15.30;13.65;;;;;;;;;;4773774;29;20058;-86
2022/11/25 08:32:33;;;;;;;16.48;14.88;;;;;;;;;;4802238;29;20050;-87
2022/11/25 08:35:00;;;;;;;15.80;13.35;;;;;;;;;;4799034;29;20130;-86
2022/11/25 08:37:33;;;;;;;16.27;12.02;;;;;;;;;;4792696;29;20054;-86
2022/11/25 08:40:14;;;;;;;11.98;10.77;;;;;;;;;;4792869;29;20054;-87
2022/11/25 08:42:41;;;;;;;16.65;14.60;;;;;;;;;;4822525;29;20058;-86
2022/11/25 08:45:16;;;;;;;13.40;12.02;;;;;;;;;;4792151;29;20054;-84
2022/11/25 08:47:44;;;;;;;15.45;11.75;;;;;;;;;;4799842;29;20038;-85
2022/11/25 08:50:13;;;;;;;19.02;17.02;;;;;;;;;;4789733;29;20456;-84
2022/11/25 08:52:41;;;;;;;18.27;16.40;;;;;;;;;;4809321;29;20054;-87
2022/11/25 08:55:09;;;;;;;18.30;15.82;;;;;;;;;;4802640;29;20066;-85
2022/11/25 08:57:37;;;;;;;17.77;15.90;;;;;;;;;;4805447;29;20050;-86
2022/11/25 09:00:07;;;;;;;15.93;14.23;;;;;;;;;;4784696;29;20054;-86
2022/11/25 09:02:34;;;;;;;18.25;16.60;;;;;;;;;;4813026;29;20046;-87
2022/11/25 09:05:01;;;;;;;16.17;14.50;;;;;;;;;;4798588;29;20046;-86
2022/11/25 09:07:29;;;;;;;18.75;16.95;;;;;;;;;;4814126;29;20050;-87
2022/11/25 09:09:57;;;;;;;17.50;16.05;;;;;;;;;;4783691;29;20050;-87
2022/11/25 09:12:27;;;;;;;17.33;15.68;;;;;;;;;;4781886;29;20089;-87
2022/11/25 09:14:54;;;;;;;17.33;15.85;;;;;;;;;;4781970;29;20611;-87
2022/11/25 09:17:21;;;;;;;17.08;15.50;;;;;;;;;;4809285;29;20133;-87
2022/11/25 09:19:49;;;;;;;12.57;11.52;;;;;;;;;;4786704;29;20126;-84
2022/11/25 09:22:16;;;;;;;19.27;17.50;;;;;;;;;;4804785;29;20141;-86
2022/11/25 09:24:44;;;;;;;18.80;17.20;;;;;;;;;;4776385;29;20059;-86
2022/11/25 09:27:11;;;;;;;17.08;15.52;;;;;;;;;;4789343;29;20054;-85
2022/11/25 09:29:38;;;;;;;19.25;17.40;;;;;;;;;;4826314;29;20054;-82
2022/11/25 09:32:06;;;;;;;16.55;15.18;;;;;;;;;;4810130;29;20041;-84
2022/11/25 09:34:33;;;;;;;23.45;20.67;;;;;;;;;;4794175;29;20503;-85
2022/11/25 09:37:01;;;;;;;17.88;16.38;;;;;;;;;;4789087;29;20050;-86
2022/11/25 09:39:29;;;;;;;16.73;15.35;;;;;;;;;;4808824;29;20460;-86
2022/11/25 09:47:54;;;;;;;16.67;15.05;;;;;;;;;;4806418;29;20051;-86
2022/11/25 09:50:30;;;;;;;18.73;16.95;;;;;;;;;;4789543;29;20050;-86
2022/11/25 09:52:57;;;;;;;19.13;17.42;;;;;;;;;;4799003;29;20517;-85
2022/11/25 09:55:25;;;;;;;17.98;16.23;;;;;;;;;;4816272;29;20046;-86
2022/11/25 09:58:05;;;;;;;29.90;27.52;;;;;;;;;;4813710;29;20789;-88
2022/11/25 10:00:46;;;;;;;20.67;18.88;;;;;;;;;;4811521;29;20108;-85
2022/11/25 10:03:24;;;;;;;20.00;18.13;;;;;;;;;;4831974;29;20348;-83
2022/11/25 10:06:11;;;;;;;18.58;17.00;;;;;;;;;;4825907;29;20050;-83
2022/11/25 10:08:41;;;;;;;21.52;19.55;;;;;;;;;;4797656;29;20128;-84
2022/11/25 10:11:20;;;;;;;19.35;17.67;;;;;;;;;;4820923;29;20042;-83
2022/11/25 10:13:54;;;;;;;18.17;16.63;;;;;;;;;;4821724;29;20042;-84
2022/11/25 10:16:27;;;;;;;20.92;18.58;;;;;;;;;;4838053;29;20054;-84
2022/11/25 10:19:13;;;;;;;20.55;18.85;;;;;;;;;;4833507;29;20051;-84
2022/11/25 10:21:40;;;;;;;21.48;19.58;;;;;;;;;;4801251;29;20070;-84
2022/11/25 10:24:13;;;;;;;24.45;22.10;;;;;;;;;;4833890;29;20137;-84
2022/11/25 10:26:48;;;;;;;22.60;20.65;;;;;;;;;;4825047;29;20050;-83
2022/11/25 10:29:24;;;;;;;20.55;18.65;;;;;;;;;;4831431;29;20054;-83
2022/11/25 10:31:53;;;;;;;20.05;18.33;;;;;;;;;;4824792;29;20034;-83
2022/11/25 10:34:29;;;;;;;26.40;24.00;;;;;;;;;;4823319;29;20141;-84
2022/11/25 10:36:58;;;;;;;21.90;19.90;;;;;;;;;;4786819;29;20360;-84
2022/11/25 10:39:30;;;;;;;21.35;19.45;;;;;;;;;;4793662;29;20179;-84
2022/11/25 10:42:03;;;;;;;23.33;21.42;;;;;;;;;;4827783;29;20061;-83
2022/11/25 10:44:31;;;;;;;20.70;18.65;;;;;;;;;;4807343;29;20054;-83
2022/11/25 10:47:05;;;;;;;19.67;17.67;;;;;;;;;;4800550;29;20047;-84
2022/11/25 10:49:50;;;;;;;19.30;17.60;;;;;;;;;;4795152;29;20102;-84
2022/11/25 10:52:20;;;;;;;21.42;19.58;;;;;;;;;;4821740;29;20481;-84
2022/11/25 10:55:07;;;;;;;19.88;18.02;;;;;;;;;;4807591;29;20111;-84
2022/11/25 10:57:34;;;;;;;20.73;19.05;;;;;;;;;;4807786;29;20607;-85
2022/11/25 11:00:03;;;;;;;20.17;18.48;;;;;;;;;;4793060;29;20482;-84
2022/11/25 11:02:38;;;;;;;21.65;19.85;;;;;;;;;;4787658;29;20043;-84
2022/11/25 11:05:08;;;;;;;26.27;24.17;;;;;;;;;;4789768;29;20055;-84
2022/11/25 11:07:37;;;;;;;21.48;19.63;;;;;;;;;;4774925;29;20352;-83
2022/11/25 11:10:16;;;;;;;22.23;20.30;;;;;;;;;;4789091;29;20545;-84
2022/11/25 11:13:04;;;;;;;20.73;19.02;;;;;;;;;;4789786;29;20066;-84
2022/11/25 11:15:40;;;;;;;19.70;18.13;;;;;;;;;;4788425;29;20061;-83
2022/11/25 11:18:20;;;;;;;19.30;17.65;;;;;;;;;;4805941;29;20108;-84
2022/11/25 11:20:48;;;;;;;21.52;19.70;;;;;;;;;;4805375;29;20061;-83
2022/11/25 11:23:16;;;;;;;23.17;21.27;;;;;;;;;;4789520;29;20795;-84
2022/11/25 11:25:55;;;;;;;21.88;19.90;;;;;;;;;;4822328;29;20531;-84
2022/11/25 11:28:42;;;;;;;21.00;19.15;;;;;;;;;;4808179;29;20047;-85
2022/11/25 11:31:23;;;;;;;17.25;15.45;;;;;;;;;;4799150;29;20048;-83
2022/11/25 11:34:00;;;;;;;27.25;25.05;;;;;;;;;;4798537;29;20046;-85
2022/11/25 11:36:31;;;;;;;23.65;21.50;;;;;;;;;;4784464;29;20139;-85
2022/11/25 11:39:13;;;;;;;24.05;21.90;;;;;;;;;;4824202;29;20054;-85
2022/11/25 11:41:40;;;;;;;;;;;;;;;;;;4824680;29;20055;-85
2022/11/25 11:44:07;;;;;;;15.55;14.32;;;;;;;;;;4792735;29;19958;-86
2022/11/25 11:46:40;;;;;;;19.25;17.48;;;;;;;;;;4807859;29;20062;-85
2022/11/25 11:49:18;;;;;;;25.20;23.05;;;;;;;;;;4808707;29;20046;-86
2022/11/25 11:51:48;;;;;;;25.90;23.80;;;;;;;;;;4823930;29;20147;-86
2022/11/25 11:54:18;;;;;;;27.15;25.13;;;;;;;;;;4824909;29;20564;-86
2022/11/25 11:56:51;;;;;;;24.58;22.65;;;;;;;;;;4823993;29;20129;-86
2022/11/25 11:59:45;;;;;;;21.85;20.23;;;;;;;;;;4824312;29;20054;-85
2022/11/25 12:02:15;;;;;;;23.65;21.60;;;;;;;;;;4809109;29;20529;-85
2022/11/25 12:05:01;;;;;;;27.80;25.25;;;;;;;;;;4827983;24;20522;-69
2022/11/25 12:07:47;;;;;;;34.33;31.77;;;;;;;;;;4801161;29;20051;-69
2022/11/25 12:10:14;;;;;;;22.63;20.50;;;;;;;;;;4800642;29;20062;-69
2022/11/25 12:12:50;;;;;;;27.17;25.00;;;;;;;;;;4800055;29;20101;-69
2022/11/25 12:15:17;;;;;;;34.22;31.08;;;;;;;;;;4800367;29;20457;-68
2022/11/25 12:17:48;;;;;;;34.15;31.60;;;;;;;;;;4800558;29;20355;-69
2022/11/25 12:20:17;;;;;;;32.47;29.90;;;;;;;;;;4800178;29;20050;-69
2022/11/25 12:22:57;;;;;;;35.05;32.42;;;;;;;;;;4799606;29;20060;-69
2022/11/25 12:25:36;;;;;;;39.95;36.80;;;;;;;;;;4799963;29;20050;-69
2022/11/25 12:28:12;;;;;;;26.30;24.00;;;;;;;;;;4799883;29;20051;-69
2022/11/25 12:31:00;;;;;;;26.75;24.58;;;;;;;;;;4800446;29;20080;-69
2022/11/25 12:33:50;;;;;;;20.02;18.15;;;;;;;;;;4792191;29;20043;-69
2022/11/25 12:36:20;;;;;;;21.23;19.40;;;;;;;;;;4799841;29;20528;-69
2022/11/25 12:39:02;;;;;;;25.65;23.42;;;;;;;;;;4800349;29;20424;-69
2022/11/25 12:41:40;;;;;;;22.50;20.60;;;;;;;;;;4799752;29;20101;-69
2022/11/25 12:44:14;;;;;;;23.85;22.08;;;;;;;;;;4800156;29;20055;-68
2022/11/25 12:46:49;;;;;;;33.00;30.25;;;;;;;;;;4800060;29;20108;-68
2022/11/25 12:49:24;;;;;;;29.98;27.63;;;;;;;;;;4799421;29;20043;-68
2022/11/25 12:51:59;;;;;;;28.52;26.13;;;;;;;;;;4801473;29;20129;-68
2022/11/25 12:54:34;;;;;;;27.95;25.67;;;;;;;;;;4818260;29;20051;-69
2022/11/25 12:57:20;;;;;;;25.92;23.77;;;;;;;;;;4818444;29;20095;-68
2022/11/25 12:59:50;;;;;;;26.48;24.15;;;;;;;;;;4815081;29;20054;-68
2022/11/25 13:02:56;;;;;;;21.30;19.55;;;;;;;;;;4835608;29;20042;-68
2022/11/25 13:05:43;;;;;;;24.85;22.77;;;;;;;;;;4835572;29;20054;-69
2022/11/25 13:08:25;;;;;;;25.80;23.73;;;;;;;;;;4831131;29;20050;-69
2022/11/25 13:10:58;;;;;;;33.58;30.50;;;;;;;;;;4819679;29;20077;-69
2022/11/25 13:13:28;;;;;;;33.22;30.52;;;;;;;;;;4821212;29;20050;-69
2022/11/25 13:15:57;;;;;;;31.33;28.67;;;;;;;;;;4821919;29;20042;-69
2022/11/25 13:18:28;;;;;;;34.03;31.33;;;;;;;;;;4821155;29;20074;-69
2022/11/25 13:20:56;;;;;;;32.05;29.55;;;;;;;;;;4831237;29;20053;-69
2022/11/25 13:23:25;;;;;;;36.53;33.78;;;;;;;;;;4830963;29;20469;-69
2022/11/25 13:25:53;;;;;;;32.35;29.77;;;;;;;;;;4832392;29;20053;-69
2022/11/25 13:28:37;;;;;;;29.20;27.08;;;;;;;;;;4839256;29;20449;-69
2022/11/25 13:31:13;;;;;;;23.85;22.00;;;;;;;;;;4839774;29;20049;-69
2022/11/25 13:33:44;;;;;;;31.35;29.05;;;;;;;;;;4839902;29;20065;-69
2022/11/25 13:36:24;;;;;;;29.73;27.58;;;;;;;;;;4839495;29;20064;-69
2022/11/25 13:38:51;;;;;;;24.60;22.80;;;;;;;;;;4833208;29;20051;-69
2022/11/25 13:41:19;;;;;;;33.42;31.02;;;;;;;;;;4820356;29;20486;-69
2022/11/25 13:44:00;;;;;;;39.05;36.13;;;;;;;;;;4820933;29;20062;-69
2022/11/25 13:46:29;;;;;;;36.13;33.15;;;;;;;;;;4820473;29;20051;-69
2022/11/25 13:48:57;;;;;;;32.65;30.23;;;;;;;;;;4820451;29;20061;-69
2022/11/25 13:51:25;;;;;;;44.47;40.72;;;;;;;;;;4820363;29;20448;-69
2022/11/25 13:53:54;;;;;;;32.58;29.80;;;;;;;;;;4828456;29;20046;-69
2022/11/25 13:56:27;;;;;;;32.70;29.90;;;;;;;;;;4831862;29;20049;-69
2022/11/25 13:59:10;;;;;;;34.38;31.83;;;;;;;;;;4836896;29;20113;-69
2022/11/25 14:01:38;;;;;;;29.27;26.83;;;;;;;;;;4820783;29;20058;-70
2022/11/25 14:04:10;;;;;;;25.60;23.42;;;;;;;;;;4820276;29;20566;-69
2022/11/25 14:06:49;;;;;;;31.40;28.92;;;;;;;;;;4823127;29;20503;-69
2022/11/25 14:09:17;;;;;;;31.58;28.75;;;;;;;;;;4819081;29;20054;-69
2022/11/25 14:11:56;;;;;;;29.60;26.80;;;;;;;;;;4837840;29;20038;-69
2022/11/25 14:14:26;;;;;;;28.83;26.38;;;;;;;;;;4828607;29;20073;-70
2022/11/25 14:16:57;;;;;;;36.42;33.72;;;;;;;;;;4836779;29;20058;-69
2022/11/25 14:19:43;;;;;;;36.70;34.00;;;;;;;;;;4831779;29;20046;-69
2022/11/25 14:22:25;;;;;;;29.35;27.30;;;;;;;;;;4836968;29;20058;-69
2022/11/25 14:24:54;;;;;;;36.55;33.90;;;;;;;;;;4840845;24;20064;-85
2022/11/25 14:27:25;;;;;;;27.65;25.55;;;;;;;;;;4830247;29;20058;-85
2022/11/25 14:30:00;;;;;;;33.30;30.88;;;;;;;;;;4796209;29;20044;-85
2022/11/25 14:32:34;;;;;;;29.70;27.55;;;;;;;;;;4783619;29;20050;-85
2022/11/25 14:35:05;;;;;;;39.60;36.63;;;;;;;;;;4817865;29;20073;-85
2022/11/25 14:37:34;;;;;;;29.30;26.83;;;;;;;;;;4813706;29;20057;-85
2022/11/25 14:40:18;;;;;;;29.85;27.15;;;;;;;;;;4831599;29;20109;-85
2022/11/25 14:42:47;;;;;;;27.35;24.65;;;;;;;;;;4808805;29;20054;-84
2022/11/25 14:45:20;;;;;;;29.40;26.40;;;;;;;;;;4824172;29;20578;-85
2022/11/25 14:47:48;;;;;;;36.30;32.78;;;;;;;;;;4794466;29;20054;-85
2022/11/25 14:50:16;;;;;;;27.23;24.83;;;;;;;;;;4787140;29;20039;-85
2022/11/25 14:53:07;;;;;;;31.15;28.48;;;;;;;;;;4792690;29;20038;-85
2022/11/25 14:55:35;;;;;;;26.98;24.63;;;;;;;;;;4799094;29;20046;-85